Time;durP1;ratioP1;P1;durP2;ratioP2;P2;SDS_P1;SDS_P2;PMS_P1;PMS_P2;Temp;Humidity;BMP_temperature;BMP_pressure;BME280_temperature;BME280_humidity;BME280_pressure;Samples;Min_cycle;Max_cycle;Signal;HPM_P1;HPM_P2
2021/07/13 00:00:30;;;;;;;4.72;2.90;;;21.00;70.30;;;;;;5104463;28;20040;-71
2021/07/13 00:02:56;;;;;;;7.30;3.00;;;20.90;70.40;;;;;;5104694;28;20050;-72
2021/07/13 00:05:22;;;;;;;7.13;3.40;;;21.00;70.10;;;;;;5104420;28;20043;-72
2021/07/13 00:07:48;;;;;;;5.10;2.88;;;20.90;70.20;;;;;;5086395;28;20055;-72
2021/07/13 00:10:15;;;;;;;5.00;3.03;;;20.90;70.10;;;;;;5104363;28;20032;-72
2021/07/13 00:12:40;;;;;;;5.22;3.30;;;20.80;70.70;;;;;;5086163;28;20060;-72
2021/07/13 00:15:16;;;;;;;4.93;3.17;;;20.70;71.20;;;;;;5086907;28;20354;-71
2021/07/13 00:17:42;;;;;;;6.07;2.80;;;20.80;71.00;;;;;;5104402;28;20044;-72
2021/07/13 00:20:09;;;;;;;4.75;2.78;;;20.80;71.10;;;;;;5085297;28;20036;-72
2021/07/13 00:22:34;;;;;;;4.32;3.17;;;20.80;70.80;;;;;;5103838;28;20036;-72
2021/07/13 00:25:00;;;;;;;5.03;2.70;;;20.80;70.90;;;;;;5103844;28;20032;-72
2021/07/13 00:27:25;;;;;;;6.90;3.30;;;20.80;71.00;;;;;;5103778;28;20220;-71
2021/07/13 00:29:51;;;;;;;4.20;2.60;;;20.90;70.60;;;;;;5104477;28;20035;-72
2021/07/13 00:32:16;;;;;;;5.43;3.03;;;20.80;70.70;;;;;;5104134;28;20036;-72
2021/07/13 00:34:42;;;;;;;4.90;2.80;;;20.80;71.00;;;;;;5103945;28;20035;-72
2021/07/13 00:37:07;;;;;;;5.03;3.25;;;20.70;71.20;;;;;;5103768;28;20032;-72
2021/07/13 00:39:33;;;;;;;4.60;3.10;;;20.60;71.50;;;;;;5085702;28;20032;-71
2021/07/13 00:41:58;;;;;;;5.22;3.05;;;20.60;71.70;;;;;;5104479;28;20028;-72
2021/07/13 00:44:24;;;;;;;7.30;3.10;;;20.60;71.80;;;;;;5104058;28;20260;-72
2021/07/13 00:46:49;;;;;;;7.55;3.20;;;20.70;71.60;;;;;;5103861;28;20324;-72
2021/07/13 00:49:16;;;;;;;4.07;2.95;;;20.60;71.60;;;;;;5086042;28;20029;-72
2021/07/13 00:51:42;;;;;;;5.10;3.25;;;20.70;71.60;;;;;;5086151;28;20254;-71
2021/07/13 00:54:08;;;;;;;6.00;3.70;;;20.60;71.50;;;;;;5086775;28;20032;-72
2021/07/13 00:56:36;;;;;;;5.47;3.08;;;20.60;71.80;;;;;;5086145;28;20077;-71
2021/07/13 00:59:03;;;;;;;5.50;3.50;;;20.50;72.00;;;;;;5085952;28;20028;-72
2021/07/13 01:01:28;;;;;;;5.90;3.40;;;20.50;72.10;;;;;;5103627;28;20087;-72
2021/07/13 01:03:54;;;;;;;5.75;2.95;;;20.50;72.20;;;;;;5085606;28;20051;-72
2021/07/13 01:06:19;;;;;;;4.22;3.00;;;20.50;72.20;;;;;;5086327;28;20056;-72
2021/07/13 01:08:50;;;;;;;5.90;3.30;;;20.60;72.20;;;;;;5085687;28;20035;-72
2021/07/13 01:11:23;;;;;;;;;;;20.70;71.70;;;;;;5086145;28;20044;-72
2021/07/13 01:14:25;;;;;;;7.30;3.22;;;20.70;71.90;;;;;;5085580;28;19904;-72
2021/07/13 01:17:01;;;;;;;3.88;2.92;;;20.70;71.90;;;;;;5088044;28;20044;-72
2021/07/13 01:19:31;;;;;;;5.65;2.90;;;20.60;71.70;;;;;;5085579;28;20024;-72
2021/07/13 01:22:10;;;;;;;3.85;2.85;;;20.50;71.80;;;;;;5103421;28;20050;-72
2021/07/13 01:25:07;;;;;;;3.92;2.70;;;20.40;71.80;;;;;;5085444;28;20039;-72
2021/07/13 01:27:45;;;;;;;7.40;3.10;;;20.50;72.10;;;;;;5085357;28;20031;-71
2021/07/13 01:30:12;;;;;;;4.68;2.70;;;20.50;72.40;;;;;;5104291;28;20040;-72
2021/07/13 01:32:39;;;;;;;5.68;3.65;;;20.40;72.60;;;;;;5107262;28;20045;-72
2021/07/13 01:35:07;;;;;;;6.57;3.97;;;20.40;72.60;;;;;;5106976;28;20036;-72
2021/07/13 01:37:33;;;;;;;9.88;3.20;;;20.60;72.00;;;;;;5088998;28;20091;-72
2021/07/13 01:39:59;;;;;;;5.00;2.80;;;20.60;71.70;;;;;;5089177;28;20327;-71
2021/07/13 01:42:25;;;;;;;5.47;2.88;;;20.40;72.10;;;;;;5107654;28;20077;-72
2021/07/13 01:44:51;;;;;;;4.45;2.58;;;20.30;72.40;;;;;;5089081;28;20035;-72
2021/07/13 01:47:16;;;;;;;3.42;2.45;;;20.50;72.30;;;;;;5072217;28;20043;-72
2021/07/13 01:49:42;;;;;;;4.75;2.70;;;20.60;72.00;;;;;;5088965;28;20223;-72
2021/07/13 01:52:07;;;;;;;7.68;2.85;;;20.50;71.80;;;;;;5088833;28;20024;-71
2021/07/13 01:54:33;;;;;;;5.60;2.80;;;20.50;71.70;;;;;;5088591;28;20028;-71
2021/07/13 01:56:59;;;;;;;3.90;2.50;;;20.50;71.70;;;;;;5089049;28;20076;-72
2021/07/13 01:59:24;;;;;;;3.95;2.63;;;20.50;71.30;;;;;;5089021;28;20251;-72
2021/07/13 02:01:50;;;;;;;4.22;2.90;;;20.60;70.90;;;;;;5088792;28;20081;-72
2021/07/13 02:04:16;;;;;;;4.18;2.70;;;20.70;70.80;;;;;;5088368;28;20025;-72
2021/07/13 02:06:41;;;;;;;5.25;3.45;;;20.60;70.80;;;;;;5106355;28;20040;-71
2021/07/13 02:09:08;;;;;;;7.50;2.83;;;20.50;71.20;;;;;;5089235;28;20035;-71
2021/07/13 02:11:34;;;;;;;4.00;2.65;;;20.50;71.50;;;;;;5106751;28;20036;-72
2021/07/13 02:13:59;;;;;;;4.88;3.28;;;20.40;71.70;;;;;;5088421;28;20361;-71
2021/07/13 02:16:25;;;;;;;3.72;2.80;;;20.40;72.10;;;;;;5105927;28;20044;-72
2021/07/13 02:18:50;;;;;;;7.45;2.55;;;20.30;72.00;;;;;;5106265;28;20039;-70
2021/07/13 02:21:17;;;;;;;6.22;2.70;;;20.30;72.30;;;;;;5106923;28;20032;-71
2021/07/13 02:23:42;;;;;;;6.35;3.08;;;20.30;72.50;;;;;;5072021;28;20035;-71
2021/07/13 02:26:08;;;;;;;5.22;3.00;;;20.40;72.50;;;;;;5105978;28;20032;-71
2021/07/13 02:28:39;;;;;;;4.88;3.00;;;20.50;72.10;;;;;;5088063;28;20081;-70
2021/07/13 02:31:13;;;;;;;4.93;2.72;;;20.30;72.60;;;;;;5088387;28;20096;-71
2021/07/13 02:34:02;;;;;;;4.40;3.00;;;20.10;73.40;;;;;;5087839;28;20066;-70
2021/07/13 02:36:29;;;;;;;5.88;3.42;;;20.30;73.20;;;;;;5087174;28;20060;-70
2021/07/13 02:38:57;;;;;;;3.47;2.95;;;20.40;72.40;;;;;;5088316;28;20035;-71
2021/07/13 02:41:22;;;;;;;5.38;3.22;;;20.30;72.90;;;;;;5088415;28;20028;-71
2021/07/13 02:43:48;;;;;;;6.85;3.00;;;20.30;73.00;;;;;;5070718;28;20055;-70
2021/07/13 02:46:14;;;;;;;4.95;3.08;;;20.30;73.00;;;;;;5088055;28;20192;-71
2021/07/13 02:48:39;;;;;;;5.30;3.20;;;20.30;72.60;;;;;;5087568;28;20083;-71
2021/07/13 02:51:05;;;;;;;5.18;2.95;;;20.30;72.70;;;;;;5088604;28;20035;-71
2021/07/13 02:53:31;;;;;;;6.75;3.08;;;20.40;72.60;;;;;;5087993;28;20032;-71
2021/07/13 02:55:57;;;;;;;5.72;3.40;;;20.30;72.50;;;;;;5087630;28;20039;-70
2021/07/13 02:58:22;;;;;;;4.68;2.97;;;20.30;72.60;;;;;;5087528;28;20036;-70
2021/07/13 03:00:48;;;;;;;6.07;3.00;;;20.20;72.90;;;;;;5087438;28;20031;-70
2021/07/13 03:03:14;;;;;;;5.25;3.25;;;20.20;73.00;;;;;;5105732;28;20028;-71
2021/07/13 03:05:40;;;;;;;3.95;2.88;;;20.30;72.90;;;;;;5087865;28;20036;-71
2021/07/13 03:08:05;;;;;;;3.50;2.72;;;20.40;72.20;;;;;;5087510;28;20043;-71
2021/07/13 03:10:32;;;;;;;3.78;2.83;;;20.20;72.60;;;;;;5105082;28;20032;-71
2021/07/13 03:12:57;;;;;;;5.35;2.72;;;20.20;73.00;;;;;;5087240;28;20228;-71
2021/07/13 03:15:29;;;;;;;6.00;3.20;;;20.30;72.90;;;;;;5087452;28;20048;-71
2021/07/13 03:17:55;;;;;;;4.05;2.83;;;20.30;72.90;;;;;;5105653;28;20040;-71
2021/07/13 03:20:21;;;;;;;6.72;2.72;;;20.30;73.00;;;;;;5086888;28;20231;-70
2021/07/13 03:22:47;;;;;;;5.82;3.00;;;20.40;72.30;;;;;;5087144;28;20339;-71
2021/07/13 03:25:18;;;;;;;4.45;3.20;;;20.30;72.60;;;;;;5086935;28;20358;-71
2021/07/13 03:27:44;;;;;;;5.55;3.03;;;20.20;72.80;;;;;;5086819;28;20044;-71
2021/07/13 03:30:10;;;;;;;3.85;2.83;;;19.80;73.70;;;;;;5088097;28;20122;-71
2021/07/13 03:32:36;;;;;;;3.95;3.03;;;20.00;73.60;;;;;;5070496;28;20047;-71
2021/07/13 03:35:02;;;;;;;7.57;3.13;;;20.30;72.70;;;;;;5086865;28;20081;-71
2021/07/13 03:37:28;;;;;;;3.80;2.80;;;19.90;73.60;;;;;;5086579;28;20052;-70
2021/07/13 03:39:54;;;;;;;4.13;3.03;;;19.90;73.90;;;;;;5086704;28;20039;-70
2021/07/13 03:42:20;;;;;;;5.63;2.70;;;20.30;73.00;;;;;;5087129;28;20023;-71
2021/07/13 03:44:45;;;;;;;5.75;2.80;;;20.30;72.60;;;;;;5086966;28;20081;-70
2021/07/13 03:47:15;;;;;;;5.53;3.08;;;20.20;73.10;;;;;;5086797;28;20250;-71
2021/07/13 03:49:41;;;;;;;6.18;3.13;;;20.30;72.70;;;;;;5104558;28;20035;-71
2021/07/13 03:52:07;;;;;;;7.72;3.25;;;20.20;72.70;;;;;;5086755;28;20032;-70
2021/07/13 03:54:33;;;;;;;6.10;3.13;;;20.10;73.30;;;;;;5103041;28;20103;-70
2021/07/13 03:56:59;;;;;;;5.82;3.28;;;20.30;72.90;;;;;;5104668;28;20028;-71
2021/07/13 03:59:24;;;;;;;6.80;3.10;;;20.00;73.60;;;;;;5086751;28;20040;-71
2021/07/13 04:01:50;;;;;;;4.07;3.10;;;20.20;73.30;;;;;;5104431;28;20028;-71
2021/07/13 04:04:15;;;;;;;8.23;3.10;;;20.00;73.70;;;;;;5086102;28;20028;-71
2021/07/13 04:06:41;;;;;;;4.53;3.10;;;20.20;73.20;;;;;;5104065;28;20036;-70
2021/07/13 04:09:07;;;;;;;6.95;3.40;;;20.00;73.80;;;;;;5104884;28;20020;-70
2021/07/13 04:11:33;;;;;;;5.00;3.40;;;20.20;73.40;;;;;;5104778;28;20077;-71
2021/07/13 04:13:58;;;;;;;7.50;2.95;;;20.10;73.70;;;;;;5086036;28;20099;-70
2021/07/13 04:16:24;;;;;;;6.32;3.22;;;20.20;73.30;;;;;;5103585;28;20100;-70
2021/07/13 04:18:49;;;;;;;6.75;3.50;;;20.20;73.40;;;;;;5103822;28;20047;-70
2021/07/13 04:21:15;;;;;;;4.05;2.88;;;20.30;73.20;;;;;;5104462;28;20031;-70
2021/07/13 04:23:40;;;;;;;5.20;3.03;;;20.20;73.70;;;;;;5053029;28;20033;-70
2021/07/13 04:26:06;;;;;;;7.47;3.17;;;20.20;73.80;;;;;;5086260;28;20032;-71
2021/07/13 04:28:32;;;;;;;7.10;3.30;;;20.20;73.90;;;;;;5103777;28;20091;-70
2021/07/13 04:31:01;;;;;;;6.88;3.22;;;20.10;74.10;;;;;;5085569;28;20028;-71
2021/07/13 04:33:26;;;;;;;5.13;3.75;;;20.20;74.20;;;;;;5104020;28;20094;-70
2021/07/13 04:35:52;;;;;;;6.75;3.15;;;20.20;73.90;;;;;;5104192;28;20028;-71
2021/07/13 04:38:18;;;;;;;5.50;3.33;;;20.30;73.70;;;;;;5085876;28;20101;-71
2021/07/13 04:40:44;;;;;;;9.52;3.50;;;20.30;73.50;;;;;;5086010;28;20032;-71
2021/07/13 04:43:09;;;;;;;5.50;3.42;;;20.40;73.60;;;;;;5085907;28;20070;-71
2021/07/13 04:45:35;;;;;;;5.05;3.50;;;20.30;73.90;;;;;;5104156;28;20315;-70
2021/07/13 04:48:00;;;;;;;8.07;3.72;;;20.40;73.70;;;;;;5104411;28;20028;-70
2021/07/13 04:50:26;;;;;;;8.60;3.70;;;20.40;73.90;;;;;;5104022;28;20036;-71
2021/07/13 04:52:51;;;;;;;6.68;3.33;;;20.40;73.90;;;;;;5103943;28;20093;-70
2021/07/13 04:55:17;;;;;;;5.18;3.72;;;20.40;73.50;;;;;;5085781;28;20151;-71
2021/07/13 04:57:46;;;;;;;6.47;3.15;;;20.40;73.50;;;;;;5103388;28;20028;-70
2021/07/13 05:00:12;;;;;;;10.32;3.45;;;20.40;73.70;;;;;;5104027;28;20032;-71
2021/07/13 05:02:38;;;;;;;5.00;3.03;;;20.40;73.70;;;;;;5103970;28;20043;-70
2021/07/13 05:05:05;;;;;;;5.13;3.10;;;20.40;73.70;;;;;;5103794;28;20267;-71
2021/07/13 05:07:30;;;;;;;4.65;3.20;;;20.40;73.60;;;;;;5106868;28;20238;-71
2021/07/13 05:09:56;;;;;;;8.27;3.20;;;20.40;73.40;;;;;;5089603;28;20056;-71
2021/07/13 05:12:21;;;;;;;6.75;3.67;;;20.40;73.40;;;;;;5107796;28;20032;-71
2021/07/13 05:14:47;;;;;;;5.85;3.30;;;20.50;73.30;;;;;;5107708;28;20027;-71
2021/07/13 05:17:12;;;;;;;4.97;3.17;;;20.50;73.60;;;;;;5072939;28;20032;-71
2021/07/13 05:19:39;;;;;;;5.13;3.10;;;20.50;73.50;;;;;;5089386;28;20044;-72
2021/07/13 05:22:08;;;;;;;7.10;3.92;;;20.50;73.70;;;;;;5107688;28;20059;-70
2021/07/13 05:24:34;;;;;;;9.00;3.45;;;20.50;73.50;;;;;;5107122;28;20039;-71
2021/07/13 05:26:59;;;;;;;7.70;3.90;;;20.50;73.70;;;;;;5107896;28;20307;-70
2021/07/13 05:29:25;;;;;;;6.30;3.33;;;20.50;73.70;;;;;;5107635;28;20036;-70
2021/07/13 05:31:50;;;;;;;7.55;3.10;;;20.60;73.40;;;;;;5089721;28;20095;-71
2021/07/13 05:34:16;;;;;;;6.35;3.72;;;20.70;73.10;;;;;;5089427;28;20393;-71
2021/07/13 05:36:41;;;;;;;5.50;3.50;;;20.70;73.00;;;;;;5106755;28;20224;-71
2021/07/13 05:39:07;;;;;;;6.53;3.80;;;20.60;73.50;;;;;;5107469;28;20083;-70
2021/07/13 05:41:33;;;;;;;5.80;3.53;;;20.70;73.40;;;;;;5089151;28;20062;-71
2021/07/13 05:43:58;;;;;;;3.75;2.97;;;20.80;73.50;;;;;;5089062;28;20220;-71
2021/07/13 05:46:24;;;;;;;7.07;3.40;;;20.70;73.50;;;;;;5088920;28;20342;-71
2021/07/13 05:48:49;;;;;;;4.90;3.58;;;20.80;73.50;;;;;;5106461;28;20327;-71
2021/07/13 05:51:15;;;;;;;5.32;3.40;;;20.80;73.40;;;;;;5107347;28;20201;-71
2021/07/13 05:53:40;;;;;;;5.55;3.28;;;20.80;73.40;;;;;;5089106;28;20028;-71
2021/07/13 05:56:07;;;;;;;7.38;3.53;;;20.80;73.40;;;;;;5106671;28;20032;-71
2021/07/13 05:58:34;;;;;;;3.88;3.22;;;20.80;73.40;;;;;;5106571;28;20358;-71
2021/07/13 06:00:59;;;;;;;10.88;3.95;;;20.90;73.40;;;;;;5106313;28;20053;-71
2021/07/13 06:03:24;;;;;;;5.05;3.40;;;20.90;73.20;;;;;;5106817;28;20200;-71
2021/07/13 06:05:50;;;;;;;7.30;3.60;;;20.90;73.30;;;;;;5107060;28;20100;-71
2021/07/13 06:08:15;;;;;;;4.63;3.40;;;20.90;73.30;;;;;;5088679;28;20036;-71
2021/07/13 06:10:41;;;;;;;7.82;3.95;;;20.90;73.40;;;;;;5106596;28;20036;-71
2021/07/13 06:13:06;;;;;;;6.60;3.53;;;20.80;73.40;;;;;;5106095;28;20265;-70
2021/07/13 06:15:32;;;;;;;4.65;3.25;;;20.90;73.20;;;;;;5106117;28;20099;-70
2021/07/13 06:17:57;;;;;;;8.07;3.67;;;20.80;73.40;;;;;;5105597;28;20067;-71
2021/07/13 06:20:23;;;;;;;6.80;3.70;;;20.90;73.10;;;;;;5105969;28;20032;-71
2021/07/13 06:22:48;;;;;;;4.75;3.58;;;20.90;73.00;;;;;;5105976;28;20087;-71
2021/07/13 06:25:14;;;;;;;6.63;3.40;;;20.90;73.10;;;;;;5106519;28;20291;-71
2021/07/13 06:27:40;;;;;;;7.53;3.70;;;21.00;73.30;;;;;;5105915;28;20036;-70
2021/07/13 06:30:08;;;;;;;5.03;3.40;;;21.00;73.10;;;;;;5106368;28;20032;-71
2021/07/13 06:32:34;;;;;;;7.68;3.08;;;21.00;73.10;;;;;;5088341;28;20036;-71
2021/07/13 06:34:59;;;;;;;7.22;3.92;;;21.00;73.10;;;;;;5088184;28;20052;-70
2021/07/13 06:37:25;;;;;;;6.43;3.83;;;21.00;73.10;;;;;;5105852;28;20036;-71
2021/07/13 06:39:51;;;;;;;7.78;3.45;;;21.00;73.00;;;;;;5088043;28;20036;-71
2021/07/13 06:42:16;;;;;;;4.78;3.33;;;21.00;73.30;;;;;;5106079;28;20032;-71
2021/07/13 06:44:42;;;;;;;6.55;3.60;;;21.00;73.20;;;;;;5106112;28;20048;-72
2021/07/13 06:47:07;;;;;;;6.55;3.35;;;21.00;73.50;;;;;;5088160;28;20032;-72
2021/07/13 06:49:33;;;;;;;8.07;3.45;;;21.10;73.40;;;;;;5105999;28;20319;-72
2021/07/13 06:51:58;;;;;;;7.15;3.38;;;21.00;73.20;;;;;;5105702;28;20126;-71
2021/07/13 06:54:24;;;;;;;8.88;3.70;;;21.10;73.10;;;;;;5106190;28;20028;-72
2021/07/13 06:56:52;;;;;;;7.47;3.70;;;21.10;73.10;;;;;;5052759;28;20095;-72
2021/07/13 06:59:18;;;;;;;5.95;3.70;;;21.10;73.30;;;;;;5105740;28;20032;-72
2021/07/13 07:01:43;;;;;;;8.23;3.38;;;21.00;73.40;;;;;;5087435;28;20096;-72
2021/07/13 07:04:09;;;;;;;5.40;3.45;;;21.10;73.40;;;;;;5105690;28;20024;-72
2021/07/13 07:06:34;;;;;;;10.23;3.97;;;21.00;73.70;;;;;;5105644;28;20200;-72
2021/07/13 07:09:00;;;;;;;6.28;3.90;;;21.00;73.20;;;;;;5105684;28;20027;-71
2021/07/13 07:11:25;;;;;;;9.27;3.13;;;21.00;73.50;;;;;;5105047;28;20039;-71
2021/07/13 07:13:51;;;;;;;7.45;3.63;;;21.10;73.40;;;;;;5105414;28;20040;-72
2021/07/13 07:16:16;;;;;;;7.55;3.75;;;21.10;73.10;;;;;;5087062;28;20038;-71
2021/07/13 07:18:42;;;;;;;7.40;3.70;;;21.10;73.10;;;;;;5104785;28;20335;-71
2021/07/13 07:21:07;;;;;;;5.28;3.80;;;21.20;73.10;;;;;;5105707;28;20035;-71
2021/07/13 07:23:34;;;;;;;4.57;3.50;;;21.10;73.20;;;;;;5105354;28;20031;-71
2021/07/13 07:25:59;;;;;;;5.57;3.58;;;21.20;72.90;;;;;;5105119;28;20327;-71
2021/07/13 07:28:25;;;;;;;6.85;3.75;;;21.20;73.60;;;;;;5104879;28;20069;-72
2021/07/13 07:30:50;;;;;;;6.75;3.47;;;21.30;73.60;;;;;;5105068;28;20091;-71
2021/07/13 07:33:16;;;;;;;6.18;3.78;;;21.30;73.40;;;;;;5105230;28;20035;-72
2021/07/13 07:35:41;;;;;;;8.50;3.95;;;21.40;73.50;;;;;;5105177;28;20095;-71
2021/07/13 07:38:07;;;;;;;6.40;3.90;;;21.50;73.20;;;;;;5086819;28;20044;-72
2021/07/13 07:40:32;;;;;;;7.95;4.47;;;21.60;73.00;;;;;;5104790;28;20208;-72
2021/07/13 07:42:58;;;;;;;6.75;4.35;;;21.70;72.70;;;;;;5086506;28;20055;-72
2021/07/13 07:45:24;;;;;;;9.30;4.68;;;21.70;72.50;;;;;;5087233;28;20220;-71
2021/07/13 07:47:50;;;;;;;9.23;3.85;;;21.80;72.70;;;;;;5086476;28;20262;-71
2021/07/13 07:50:16;;;;;;;6.72;4.60;;;21.80;72.80;;;;;;5104385;28;20039;-71
2021/07/13 07:52:41;;;;;;;9.10;3.97;;;21.90;72.50;;;;;;5104584;28;20024;-71
2021/07/13 07:55:08;;;;;;;6.80;4.05;;;22.00;72.10;;;;;;5086439;28;20074;-71
2021/07/13 07:57:34;;;;;;;8.48;4.60;;;22.00;72.20;;;;;;5069636;28;20055;-71
2021/07/13 07:59:59;;;;;;;5.82;4.55;;;22.10;71.90;;;;;;5086975;28;20025;-71
2021/07/13 08:02:25;;;;;;;5.88;4.60;;;22.10;71.60;;;;;;5104649;28;20331;-70
2021/07/13 08:04:50;;;;;;;7.47;4.95;;;22.10;71.20;;;;;;5104144;28;20043;-70
2021/07/13 08:07:16;;;;;;;7.55;5.45;;;22.20;70.90;;;;;;5104122;28;20028;-71
2021/07/13 08:09:41;;;;;;;8.85;6.47;;;22.10;71.00;;;;;;5104267;28;20348;-70
2021/07/13 08:12:07;;;;;;;6.50;5.72;;;22.00;71.00;;;;;;5104786;28;20126;-71
2021/07/13 08:14:33;;;;;;;8.90;6.38;;;22.00;70.80;;;;;;5104095;28;20085;-71
2021/07/13 08:16:58;;;;;;;10.10;6.10;;;22.00;70.90;;;;;;5103490;28;20103;-71
2021/07/13 08:19:24;;;;;;;7.32;5.93;;;21.90;71.10;;;;;;5103765;28;20039;-71
2021/07/13 08:21:49;;;;;;;10.18;6.55;;;22.10;71.10;;;;;;5104394;28;20204;-71
2021/07/13 08:24:16;;;;;;;7.43;6.10;;;22.10;71.00;;;;;;5104330;28;20023;-71
2021/07/13 08:26:41;;;;;;;14.38;6.28;;;22.10;70.60;;;;;;5104276;28;20062;-71
2021/07/13 08:29:07;;;;;;;10.90;6.10;;;22.20;70.90;;;;;;5104206;28;20223;-71
2021/07/13 08:31:32;;;;;;;7.65;6.68;;;22.30;71.10;;;;;;5085822;28;20339;-71
2021/07/13 08:33:58;;;;;;;8.80;7.00;;;22.30;70.20;;;;;;5103949;28;20087;-71
2021/07/13 08:36:23;;;;;;;7.63;6.55;;;22.30;70.30;;;;;;5104453;28;20028;-70
2021/07/13 08:38:49;;;;;;;9.80;7.60;;;22.30;70.20;;;;;;5104129;28;20035;-70
2021/07/13 08:41:18;;;;;;;8.52;6.95;;;22.30;69.70;;;;;;5103566;28;20356;-70
2021/07/13 08:43:44;;;;;;;9.93;7.60;;;22.30;69.70;;;;;;5103805;28;20036;-70
2021/07/13 08:46:10;;;;;;;8.90;7.25;;;22.30;69.50;;;;;;5069126;28;20092;-70
2021/07/13 08:48:36;;;;;;;10.07;7.32;;;22.30;69.30;;;;;;5085681;28;20052;-70
2021/07/13 08:51:02;;;;;;;10.85;7.50;;;22.40;69.10;;;;;;5069411;28;20027;-71
2021/07/13 08:53:30;;;;;;;10.02;7.30;;;22.50;69.00;;;;;;5104230;28;20082;-71
2021/07/13 08:55:56;;;;;;;11.45;7.50;;;22.50;68.40;;;;;;5103615;28;20036;-71
2021/07/13 08:58:22;;;;;;;8.65;7.53;;;22.50;68.10;;;;;;5103214;28;20042;-71
2021/07/13 09:00:48;;;;;;;11.27;7.03;;;22.60;68.10;;;;;;5103852;28;20388;-71
2021/07/13 09:03:16;;;;;;;7.75;6.93;;;22.70;69.00;;;;;;5086366;28;20335;-71
2021/07/13 09:05:52;;;;;;;10.10;7.28;;;22.80;68.40;;;;;;5086165;28;20039;-71
2021/07/13 09:08:22;;;;;;;8.30;6.63;;;22.90;68.70;;;;;;5085585;28;20036;-71
2021/07/13 09:11:04;;;;;;;8.10;6.63;;;23.00;67.90;;;;;;5086307;28;20042;-71
2021/07/13 09:13:32;;;;;;;8.10;6.38;;;22.90;67.90;;;;;;5103793;28;20039;-71
2021/07/13 09:15:58;;;;;;;11.45;6.95;;;23.00;67.70;;;;;;5102831;28;20251;-70
2021/07/13 09:18:46;;;;;;;8.32;6.13;;;23.10;67.10;;;;;;5085843;28;20029;-71
2021/07/13 09:21:23;;;;;;;9.88;6.45;;;23.10;66.90;;;;;;5104013;28;20113;-71
2021/07/13 09:23:59;;;;;;;7.47;6.13;;;23.10;67.10;;;;;;5069740;28;20032;-71
2021/07/13 09:26:43;;;;;;;7.03;5.75;;;23.20;67.20;;;;;;5068934;28;20192;-71
2021/07/13 09:29:32;;;;;;;11.15;6.72;;;23.20;66.60;;;;;;5103713;28;20269;-71
2021/07/13 09:32:18;;;;;;;7.38;6.30;;;23.40;68.70;;;;;;5064091;28;20053;-73
2021/07/13 09:34:46;;;;;;;9.60;6.65;;;23.60;66.90;;;;;;5102048;28;20035;-71
2021/07/13 09:37:23;;;;;;;7.35;6.55;;;23.60;66.30;;;;;;5103231;28;20040;-72
2021/07/13 09:40:06;;;;;;;7.97;6.47;;;23.70;66.40;;;;;;5103130;28;20095;-71
2021/07/13 09:42:36;;;;;;;6.82;5.75;;;23.70;65.50;;;;;;5103030;28;20035;-72
2021/07/13 09:45:28;;;;;;;8.25;6.50;;;23.60;65.90;;;;;;5103820;28;20039;-72
2021/07/13 09:47:58;;;;;;;10.00;7.07;;;23.50;65.70;;;;;;5103152;28;20039;-72
2021/07/13 09:50:30;;;;;;;8.73;6.90;;;23.60;65.70;;;;;;5103444;28;20070;-72
2021/07/13 09:53:03;;;;;;;7.85;7.05;;;23.70;65.40;;;;;;5104171;28;20055;-72
2021/07/13 09:55:29;;;;;;;10.10;7.32;;;23.80;65.10;;;;;;5106615;28;20028;-72
2021/07/13 09:58:14;;;;;;;11.77;7.95;;;23.80;65.50;;;;;;5106436;28;20036;-72
2021/07/13 10:00:40;;;;;;;11.02;7.20;;;23.80;65.10;;;;;;5106834;28;20065;-72
2021/07/13 10:03:07;;;;;;;9.52;7.63;;;23.80;65.20;;;;;;5107288;28;20039;-72
2021/07/13 10:05:33;;;;;;;9.68;7.22;;;23.80;65.70;;;;;;5106902;28;20043;-73
2021/07/13 10:07:58;;;;;;;7.53;5.63;;;23.70;66.20;;;;;;5088893;28;20036;-72
2021/07/13 10:10:24;;;;;;;4.63;3.10;;;23.60;65.20;;;;;;5088557;28;20189;-72
2021/07/13 10:12:53;;;;;;;8.02;2.05;;;23.40;65.20;;;;;;5088623;28;20035;-72
2021/07/13 10:15:18;;;;;;;7.60;1.52;;;23.20;65.30;;;;;;5106574;28;20086;-72
2021/07/13 10:17:44;;;;;;;4.45;1.40;;;23.10;64.60;;;;;;5106612;28;20040;-72
2021/07/13 10:20:10;;;;;;;2.03;0.98;;;22.80;65.20;;;;;;5106139;28;20032;-72
2021/07/13 10:22:43;;;;;;;2.60;0.90;;;22.80;64.70;;;;;;5106305;28;20070;-72
2021/07/13 10:25:09;;;;;;;1.38;0.90;;;22.80;64.90;;;;;;5088276;28;20032;-72
2021/07/13 10:27:36;;;;;;;2.03;0.80;;;22.60;64.60;;;;;;5088298;28;20100;-71
2021/07/13 10:30:08;;;;;;;3.15;0.70;;;22.70;64.40;;;;;;5106507;28;20032;-72
2021/07/13 10:32:41;;;;;;;2.40;0.77;;;22.70;64.40;;;;;;5105892;28;20040;-72
2021/07/13 10:35:13;;;;;;;2.50;0.70;;;22.50;64.60;;;;;;5105981;28;20354;-72
2021/07/13 10:37:42;;;;;;;1.33;0.68;;;22.30;65.60;;;;;;5105646;28;20043;-72
2021/07/13 10:40:09;;;;;;;1.02;0.60;;;22.30;64.90;;;;;;5088149;28;20032;-72
2021/07/13 10:42:41;;;;;;;2.20;0.82;;;22.30;64.00;;;;;;5087767;28;20031;-71
2021/07/13 10:45:32;;;;;;;2.20;0.52;;;22.30;63.30;;;;;;5106795;28;20207;-71
2021/07/13 10:48:16;;;;;;;4.57;0.68;;;22.20;63.60;;;;;;5090332;28;20055;-71
2021/07/13 10:50:57;;;;;;;4.15;1.05;;;21.90;63.80;;;;;;5088129;28;20054;-71
2021/07/13 10:53:42;;;;;;;2.20;0.80;;;21.90;63.30;;;;;;5073205;28;20036;-71
2021/07/13 10:56:31;;;;;;;8.32;1.00;;;21.80;62.80;;;;;;5071987;28;20028;-71
2021/07/13 10:58:57;;;;;;;5.68;1.20;;;21.60;62.80;;;;;;5092548;28;20087;-72
2021/07/13 11:01:31;;;;;;;6.43;1.60;;;21.50;63.30;;;;;;5054150;28;20024;-71
2021/07/13 11:03:58;;;;;;;6.35;1.13;;;21.40;63.20;;;;;;5105193;28;20028;-71
2021/07/13 11:06:43;;;;;;;4.15;1.33;;;21.50;62.60;;;;;;5105779;28;20031;-71
2021/07/13 11:09:19;;;;;;;1.05;0.50;;;21.40;62.60;;;;;;5106138;28;20370;-72
2021/07/13 11:11:45;;;;;;;0.80;0.40;;;21.10;62.30;;;;;;5087927;28;20032;-71
2021/07/13 11:14:11;;;;;;;0.95;0.43;;;21.00;62.70;;;;;;5105492;28;20036;-72
2021/07/13 11:16:38;;;;;;;2.28;0.50;;;20.80;62.30;;;;;;5104786;28;20036;-71
2021/07/13 11:19:16;;;;;;;2.85;0.57;;;20.80;61.90;;;;;;5105332;28;20081;-72
2021/07/13 11:21:44;;;;;;;1.27;0.45;;;20.80;61.50;;;;;;5105177;28;20024;-71
2021/07/13 11:24:12;;;;;;;2.28;0.63;;;20.60;61.80;;;;;;5106006;28;20031;-71
2021/07/13 11:26:46;;;;;;;3.85;0.50;;;20.60;62.00;;;;;;5105403;28;20044;-72
2021/07/13 11:29:22;;;;;;;2.58;0.50;;;20.60;62.40;;;;;;5104729;28;20091;-71
2021/07/13 11:31:53;;;;;;;4.90;0.50;;;20.50;62.00;;;;;;5105082;28;20073;-72
2021/07/13 11:34:21;;;;;;;1.75;0.30;;;20.50;61.30;;;;;;5086885;28;20327;-71
2021/07/13 11:36:49;;;;;;;0.68;0.30;;;20.30;62.20;;;;;;5104574;28;20036;-71
2021/07/13 11:39:16;;;;;;;2.90;0.85;;;20.00;62.60;;;;;;5071288;28;20078;-71
2021/07/13 11:41:42;;;;;;;2.10;0.52;;;20.00;62.40;;;;;;5105063;28;20028;-71
2021/07/13 11:44:09;;;;;;;2.53;0.80;;;19.90;63.10;;;;;;5086919;28;20039;-72
2021/07/13 11:46:39;;;;;;;1.10;0.40;;;20.10;62.80;;;;;;5086617;28;20335;-72
2021/07/13 11:49:12;;;;;;;2.28;0.30;;;20.00;62.10;;;;;;5086658;28;20040;-71
2021/07/13 11:51:42;;;;;;;0.63;0.38;;;19.90;61.90;;;;;;5104440;28;20219;-72
2021/07/13 11:54:12;;;;;;;1.98;0.50;;;19.80;62.20;;;;;;5087296;28;20024;-70
2021/07/13 11:56:39;;;;;;;0.45;0.40;;;19.80;62.50;;;;;;5104649;28;20031;-71
2021/07/13 11:59:05;;;;;;;0.90;0.85;;;19.80;62.30;;;;;;5069770;28;20032;-71
2021/07/13 12:01:32;;;;;;;3.53;0.40;;;19.70;63.10;;;;;;5086257;28;20032;-71
2021/07/13 12:04:15;;;;;;;3.63;0.38;;;19.80;62.80;;;;;;5104291;28;20027;-71
2021/07/13 12:06:41;;;;;;;2.47;0.57;;;19.80;62.30;;;;;;5104108;28;20028;-71
2021/07/13 12:09:09;;;;;;;0.73;0.40;;;19.80;62.60;;;;;;5086696;28;20040;-71
2021/07/13 12:11:35;;;;;;;4.25;0.80;;;19.90;62.30;;;;;;5104561;28;20077;-72
2021/07/13 12:14:02;;;;;;;0.95;0.50;;;19.80;62.70;;;;;;5104375;28;20028;-70
2021/07/13 12:16:29;;;;;;;1.05;0.50;;;19.80;62.10;;;;;;5103162;28;20331;-74
2021/07/13 12:18:55;;;;;;;0.63;0.40;;;19.80;63.20;;;;;;5103888;28;20341;-73
2021/07/13 12:21:21;;;;;;;1.85;0.30;;;19.70;63.40;;;;;;5086456;28;20028;-72
2021/07/13 12:23:47;;;;;;;2.42;0.45;;;19.70;62.20;;;;;;5103850;28;20082;-71
2021/07/13 12:26:39;;;;;;;1.50;0.60;;;19.60;62.50;;;;;;5086423;28;20033;-71
2021/07/13 12:29:18;;;;;;;0.93;0.60;;;19.40;63.10;;;;;;5099681;28;20036;-71
2021/07/13 12:31:44;;;;;;;0.77;0.50;;;19.40;63.10;;;;;;5103882;28;20040;-70
2021/07/13 12:34:22;;;;;;;0.75;0.43;;;19.50;63.10;;;;;;5103585;28;20035;-71
2021/07/13 12:37:05;;;;;;;0.57;0.45;;;19.40;63.40;;;;;;5103930;28;20107;-70
2021/07/13 12:39:30;;;;;;;0.57;0.40;;;19.40;63.80;;;;;;5103737;28;20245;-70
2021/07/13 12:42:01;;;;;;;0.75;0.63;;;19.40;63.80;;;;;;5104516;28;20020;-71
2021/07/13 12:44:27;;;;;;;0.57;0.20;;;19.30;63.90;;;;;;5104184;28;20028;-71
2021/07/13 12:46:53;;;;;;;0.55;0.40;;;19.30;64.30;;;;;;5103587;28;20036;-71
2021/07/13 12:49:19;;;;;;;1.77;0.45;;;19.40;64.30;;;;;;5103790;28;20028;-71